Time;durP1;ratioP1;P1;durP2;ratioP2;P2;SDS_P1;SDS_P2;PMS_P1;PMS_P2;Temp;Humidity;BMP_temperature;BMP_pressure;BME280_temperature;BME280_humidity;BME280_pressure;Samples;Min_cycle;Max_cycle;Signal;HPM_P1;HPM_P2
2023/04/24 00:09:24;;;;;;;3.23;1.43;;;13.70;96.60;;;;;;21004698;28;20216;-65
2023/04/24 00:19:26;;;;;;;1.37;1.20;;;13.70;96.70;;;;;;21003974;28;20301;-64
2023/04/24 00:29:28;;;;;;;2.00;1.10;;;13.60;96.60;;;;;;21003457;28;20233;-66
2023/04/24 00:39:30;;;;;;;1.90;1.00;;;13.60;96.30;;;;;;21001686;28;20234;-65
2023/04/24 00:49:31;;;;;;;1.20;1.03;;;13.50;96.40;;;;;;21001068;28;20216;-65
2023/04/24 00:59:33;;;;;;;1.73;1.00;;;13.50;96.20;;;;;;21000793;28;20279;-65
2023/04/24 01:09:36;;;;;;;2.60;1.27;;;13.50;96.10;;;;;;20999713;28;20658;-65
2023/04/24 01:19:38;;;;;;;2.00;1.13;;;13.50;95.80;;;;;;20998976;28;20577;-65
2023/04/24 01:29:41;;;;;;;2.33;1.20;;;13.60;95.50;;;;;;20998636;28;20221;-65
2023/04/24 01:39:43;;;;;;;3.23;1.00;;;13.70;95.30;;;;;;20997496;28;20228;-66
2023/04/24 01:49:47;;;;;;;2.60;1.17;;;13.60;94.90;;;;;;20996164;28;20228;-66
2023/04/24 01:59:50;;;;;;;1.20;1.03;;;13.70;95.10;;;;;;20997280;28;20594;-64
2023/04/24 02:09:51;;;;;;;4.00;1.10;;;13.60;95.10;;;;;;20995974;28;20205;-64
2023/04/24 02:19:53;;;;;;;1.10;1.00;;;13.60;95.10;;;;;;20995442;28;20241;-64
2023/04/24 02:29:55;;;;;;;2.90;0.97;;;13.60;95.20;;;;;;20995554;28;20211;-64
2023/04/24 02:39:56;;;;;;;1.47;0.90;;;13.60;95.30;;;;;;20994490;28;20240;-64
2023/04/24 02:49:58;;;;;;;2.07;1.03;;;13.50;95.30;;;;;;20994205;28;20749;-65
2023/04/24 03:00:00;;;;;;;2.57;0.97;;;13.40;95.20;;;;;;20994002;28;20232;-65
2023/04/24 03:10:02;;;;;;;1.63;1.13;;;13.40;95.30;;;;;;21007224;28;20260;-65
2023/04/24 03:20:05;;;;;;;1.00;0.90;;;13.20;95.20;;;;;;21008384;28;20277;-65
2023/04/24 03:30:08;;;;;;;3.20;1.10;;;13.20;95.30;;;;;;21007998;28;20260;-65
2023/04/24 03:40:10;;;;;;;3.37;1.30;;;13.30;95.60;;;;;;21006833;28;20239;-65
2023/04/24 03:50:11;;;;;;;2.40;1.10;;;13.30;95.30;;;;;;21006205;28;20241;-64
2023/04/24 04:00:14;;;;;;;1.93;0.93;;;13.30;95.50;;;;;;21005554;28;20351;-65
2023/04/24 04:10:17;;;;;;;2.27;1.10;;;13.10;95.50;;;;;;21004651;28;20240;-65
2023/04/24 04:20:18;;;;;;;4.83;1.10;;;13.10;95.40;;;;;;21002922;28;20239;-65
2023/04/24 04:30:20;;;;;;;2.60;1.10;;;13.10;95.60;;;;;;21003354;28;20652;-65
2023/04/24 04:40:23;;;;;;;4.53;1.30;;;13.10;95.60;;;;;;21002097;28;20752;-66
2023/04/24 04:50:24;;;;;;;6.17;1.30;;;13.20;95.70;;;;;;21001001;28;20234;-65
2023/04/24 05:00:27;;;;;;;3.33;1.20;;;13.10;95.50;;;;;;21000632;28;20248;-64
2023/04/24 05:10:28;;;;;;;4.60;1.30;;;13.00;96.10;;;;;;20999592;28;20204;-63
2023/04/24 05:20:30;;;;;;;1.30;1.20;;;13.10;95.90;;;;;;20998021;28;20230;-64
2023/04/24 05:30:32;;;;;;;1.97;1.33;;;13.00;95.50;;;;;;20997397;28;20219;-64
2023/04/24 05:40:33;;;;;;;3.17;1.43;;;12.90;94.90;;;;;;20996494;28;20257;-64
2023/04/24 05:50:35;;;;;;;1.23;1.13;;;12.70;93.70;;;;;;20995991;28;20630;-63
2023/04/24 06:00:41;;;;;;;4.17;2.40;;;12.70;94.00;;;;;;20995754;28;20244;-65
2023/04/24 06:10:42;;;;;;;2.30;1.40;;;12.50;93.60;;;;;;20994252;28;20212;-65
2023/04/24 06:20:47;;;;;;;3.33;1.30;;;12.50;93.20;;;;;;20994451;28;20594;-63
2023/04/24 06:30:49;;;;;;;2.33;1.50;;;12.80;92.80;;;;;;21050794;28;20209;-64
2023/04/24 06:40:51;;;;;;;2.30;1.60;;;12.80;90.70;;;;;;21038410;28;20233;-64
2023/04/24 06:50:52;;;;;;;2.53;1.70;;;13.70;91.50;;;;;;21048802;28;20716;-65
2023/04/24 07:00:54;;;;;;;3.27;1.70;;;13.10;89.70;;;;;;21092793;28;20269;-64
2023/04/24 07:10:57;;;;;;;3.20;1.90;;;13.10;89.20;;;;;;21072512;28;20198;-64
2023/04/24 07:20:58;;;;;;;6.13;2.20;;;13.20;87.40;;;;;;21007216;28;20259;-64
2023/04/24 07:31:00;;;;;;;5.63;3.40;;;13.60;85.00;;;;;;21005749;28;20211;-64
2023/04/24 07:41:02;;;;;;;8.57;2.07;;;13.90;83.60;;;;;;21005998;28;20280;-65
2023/04/24 07:51:03;;;;;;;2.50;2.30;;;13.80;83.30;;;;;;21073742;28;20266;-63
2023/04/24 08:01:06;;;;;;;4.93;2.00;;;13.90;83.10;;;;;;21088349;28;20246;-64
2023/04/24 08:11:08;;;;;;;2.77;2.17;;;13.90;82.10;;;;;;21087216;28;20668;-63
2023/04/24 08:21:11;;;;;;;4.60;2.10;;;13.80;82.30;;;;;;21085843;28;20242;-66
2023/04/24 08:31:13;;;;;;;3.10;2.10;;;;;;;;;;21085681;28;20197;-64
2023/04/24 08:41:15;;;;;;;2.57;2.23;;;;;;;;;;21084535;28;20241;-63
2023/04/24 08:51:18;;;;;;;2.73;2.07;;;13.90;83.30;;;;;;21084116;28;20253;-63
2023/04/24 09:01:20;;;;;;;6.07;4.50;;;14.00;84.20;;;;;;21081308;28;20234;-65
2023/04/24 09:11:24;;;;;;;1.70;1.30;;;14.10;82.50;;;;;;21082845;28;20213;-66
2023/04/24 09:21:33;;;;;;;1.60;1.30;;;14.20;79.70;;;;;;21081061;28;20245;-65
2023/04/24 09:31:35;;;;;;;1.70;1.33;;;;;;;;;;21074416;28;20292;-64
2023/04/24 09:41:51;;;;;;;2.90;1.50;;;14.70;77.40;;;;;;21033020;28;20224;-68
2023/04/24 09:52:05;;;;;;;5.03;1.63;;;14.80;74.40;;;;;;21038023;28;20745;-67
2023/04/24 10:02:19;;;;;;;1.60;1.50;;;14.50;73.20;;;;;;21076978;28;20230;-68
2023/04/24 10:12:21;;;;;;;3.40;1.80;;;14.60;72.00;;;;;;21004836;28;20717;-68
2023/04/24 10:22:24;;;;;;;1.97;1.57;;;15.00;70.50;;;;;;20994558;28;20317;-67
2023/04/24 10:32:26;;;;;;;2.50;2.10;;;14.90;66.50;;;;;;20994271;28;20667;-69
2023/04/24 10:42:28;;;;;;;3.17;1.87;;;14.50;66.90;;;;;;21032230;28;20231;-69
2023/04/24 10:52:46;;;;;;;2.93;2.40;;;14.20;67.30;;;;;;21076466;28;20302;-65
2023/04/24 11:02:50;;;;;;;2.53;2.33;;;14.20;67.10;;;;;;21075262;28;20232;-67
2023/04/24 11:12:52;;;;;;;5.13;2.10;;;14.40;67.70;;;;;;21076593;28;20203;-66
2023/04/24 11:22:55;;;;;;;3.93;2.70;;;14.40;66.80;;;;;;21076807;28;20630;-65
2023/04/24 11:33:02;;;;;;;5.97;3.63;;;14.20;67.40;;;;;;21089544;28;20202;-67
2023/04/24 11:43:05;;;;;;;3.10;2.67;;;14.40;68.30;;;;;;21044804;28;20230;-65
2023/04/24 11:53:08;;;;;;;5.97;2.40;;;14.50;67.60;;;;;;21005131;28;20231;-64
2023/04/24 12:03:11;;;;;;;3.57;1.73;;;14.30;68.60;;;;;;21004503;28;20710;-67
2023/04/24 12:13:14;;;;;;;2.60;1.60;;;14.70;70.20;;;;;;21003982;28;20207;-66
2023/04/24 12:23:17;;;;;;;2.00;1.50;;;14.80;70.50;;;;;;21037453;28;20598;-65
2023/04/24 12:33:20;;;;;;;1.80;1.40;;;15.30;67.10;;;;;;21001940;28;20680;-66
2023/04/24 12:43:22;;;;;;;1.63;1.23;;;15.30;67.10;;;;;;21046678;28;20227;-67
2023/04/24 12:53:26;;;;;;;2.80;1.80;;;15.60;65.60;;;;;;21083279;28;20285;-67
2023/04/24 13:03:28;;;;;;;1.40;1.30;;;14.80;63.40;;;;;;21081613;28;20283;-67
2023/04/24 13:13:30;;;;;;;2.20;1.83;;;14.30;65.10;;;;;;21082866;28;20670;-68
2023/04/24 13:23:31;;;;;;;2.33;1.80;;;14.30;65.70;;;;;;21081866;28;20308;-69
2023/04/24 13:33:33;;;;;;;4.87;2.60;;;14.50;65.80;;;;;;21079569;28;20205;-68
2023/04/24 13:43:35;;;;;;;3.57;2.00;;;14.70;66.10;;;;;;21080424;28;20265;-67
2023/04/24 13:53:38;;;;;;;2.10;1.90;;;14.40;65.40;;;;;;21078649;28;20242;-67
2023/04/24 14:03:43;;;;;;;2.83;1.43;;;14.30;65.90;;;;;;21079276;28;20297;-67
2023/04/24 14:13:46;;;;;;;2.10;1.90;;;13.40;71.60;;;;;;21079259;28;20249;-67
2023/04/24 14:23:47;;;;;;;3.20;1.77;;;13.20;74.30;;;;;;21078434;28;20242;-67
2023/04/24 14:33:49;;;;;;;3.63;1.70;;;17.30;75.00;;;;;;21078006;28;20205;-71
2023/04/24 14:43:51;;;;;;;3.05;1.75;;;25.10;53.30;;;;;;21077523;28;20235;-70
2023/04/24 14:53:53;;;;;;;6.57;2.20;;;21.00;50.70;;;;;;21076286;28;20228;-71
2023/04/24 15:03:55;;;;;;;3.70;2.07;;;;;;;;;;21088569;28;20234;-69
2023/04/24 15:13:57;;;;;;;3.07;2.37;;;;;;;;;;21091736;28;20205;-68
2023/04/24 15:23:59;;;;;;;5.87;3.37;;;16.30;59.50;;;;;;21060221;28;20237;-68
2023/04/24 15:34:01;;;;;;;3.40;2.43;;;;;;;;;;21054616;28;20672;-69
2023/04/24 15:44:03;;;;;;;3.53;2.97;;;;;;;;;;21016693;28;20259;-70
2023/04/24 15:54:05;;;;;;;5.40;2.67;;;15.10;57.50;;;;;;21034866;28;20233;-68
2023/04/24 16:04:07;;;;;;;5.23;2.60;;;15.20;58.20;;;;;;21088820;28;20238;-69
2023/04/24 16:14:09;;;;;;;6.77;3.33;;;15.20;58.90;;;;;;21087355;28;20259;-68
2023/04/24 16:24:11;;;;;;;4.33;2.40;;;18.40;56.80;;;;;;21088127;28;20691;-67
2023/04/24 16:34:13;;;;;;;4.17;2.80;;;18.40;57.20;;;;;;21007092;28;20204;-71
2023/04/24 16:44:15;;;;;;;3.43;2.60;;;16.10;56.50;;;;;;21001806;28;20246;-71
2023/04/24 16:54:16;;;;;;;5.17;3.00;;;16.20;57.10;;;;;;21020165;28;20252;-65
2023/04/24 17:04:18;;;;;;;2.87;2.30;;;18.70;53.40;;;;;;21042108;28;20642;-69
2023/04/24 17:14:21;;;;;;;5.30;2.60;;;18.60;53.90;;;;;;21002479;28;20210;-67
2023/04/24 17:24:23;;;;;;;2.73;2.43;;;16.50;55.80;;;;;;20998256;28;20320;-66
2023/04/24 17:34:25;;;;;;;3.93;2.53;;;15.00;58.60;;;;;;21078483;28;20206;-67
2023/04/24 17:44:27;;;;;;;3.30;2.90;;;14.40;61.40;;;;;;21077668;28;20238;-66
2023/04/24 17:54:28;;;;;;;5.33;2.80;;;14.40;62.00;;;;;;21030861;28;20638;-66
2023/04/24 18:04:30;;;;;;;5.20;3.10;;;13.60;65.10;;;;;;21023348;28;20232;-64
2023/04/24 18:14:32;;;;;;;4.63;3.00;;;13.30;66.80;;;;;;21031137;28;20239;-65
2023/04/24 18:24:34;;;;;;;6.90;2.90;;;;;;;;;;21030450;28;20288;-66
2023/04/24 18:34:36;;;;;;;4.40;3.10;;;13.00;68.50;;;;;;21037796;28;20212;-65
2023/04/24 18:44:40;;;;;;;4.03;3.23;;;12.80;69.50;;;;;;21052705;28;20811;-64
2023/04/24 18:54:41;;;;;;;5.70;3.37;;;12.90;70.30;;;;;;21049468;28;20242;-64
2023/04/24 19:04:43;;;;;;;5.00;3.60;;;12.60;71.70;;;;;;21049669;28;20242;-63
2023/04/24 19:14:45;;;;;;;6.50;3.80;;;12.70;72.60;;;;;;21048686;28;20654;-66
2023/04/24 19:24:47;;;;;;;7.07;3.60;;;12.60;73.00;;;;;;21048062;28;20238;-66
2023/04/24 19:34:49;;;;;;;4.70;3.60;;;12.70;73.40;;;;;;21048160;28;20214;-67
2023/04/24 19:44:51;;;;;;;6.70;3.00;;;12.60;74.90;;;;;;21048882;28;20705;-66
2023/04/24 19:54:53;;;;;;;4.53;3.20;;;12.70;75.40;;;;;;21047566;28;20231;-67
2023/04/24 20:04:55;;;;;;;4.57;3.13;;;12.60;76.20;;;;;;21045014;28;20234;-68
2023/04/24 20:14:57;;;;;;;3.93;3.00;;;12.40;76.60;;;;;;21048195;28;20207;-63
2023/04/24 20:24:59;;;;;;;4.07;3.40;;;12.30;77.00;;;;;;21042412;28;20303;-64
2023/04/24 20:35:01;;;;;;;6.97;3.50;;;12.30;77.70;;;;;;21045538;28;20221;-67
2023/04/24 20:45:03;;;;;;;6.30;3.60;;;12.20;78.70;;;;;;21018099;28;20711;-63
2023/04/24 20:55:05;;;;;;;3.33;3.03;;;12.00;82.70;;;;;;20999525;28;20726;-65
2023/04/24 21:05:08;;;;;;;5.07;3.70;;;11.90;85.30;;;;;;21000977;28;20236;-66
2023/04/24 21:15:10;;;;;;;4.67;3.87;;;11.90;87.10;;;;;;21000003;28;20215;-66
2023/04/24 21:25:11;;;;;;;6.93;5.07;;;11.90;87.70;;;;;;20999399;28;20230;-66
2023/04/24 21:35:13;;;;;;;8.27;4.27;;;12.00;89.10;;;;;;20998333;28;20206;-68
2023/04/24 21:45:15;;;;;;;4.83;4.00;;;12.00;90.30;;;;;;20997587;28;20243;-67
2023/04/24 21:55:17;;;;;;;5.10;3.90;;;12.00;90.60;;;;;;20997312;28;20643;-64
2023/04/24 22:05:19;;;;;;;5.03;3.77;;;12.00;91.00;;;;;;20996298;28;20239;-64
2023/04/24 22:15:20;;;;;;;5.23;3.83;;;11.90;91.30;;;;;;20995274;28;20244;-64
2023/04/24 22:25:22;;;;;;;5.23;3.80;;;11.60;91.20;;;;;;20995907;28;20226;-64
2023/04/24 22:35:24;;;;;;;5.00;3.77;;;11.60;91.50;;;;;;20995137;28;20289;-64
2023/04/24 22:45:26;;;;;;;6.20;3.53;;;11.50;91.70;;;;;;20994888;28;20244;-65
2023/04/24 22:55:28;;;;;;;4.60;3.57;;;11.50;92.10;;;;;;20994652;28;20720;-64
2023/04/24 23:05:30;;;;;;;4.30;3.90;;;11.60;91.90;;;;;;20993955;28;20237;-66
2023/04/24 23:15:31;;;;;;;4.50;3.50;;;11.70;92.10;;;;;;20993635;28;20205;-64
2023/04/24 23:25:33;;;;;;;4.10;3.50;;;11.70;92.10;;;;;;21004833;28;20234;-67
2023/04/24 23:35:35;;;;;;;3.80;3.30;;;11.70;92.30;;;;;;21008029;28;20208;-68
2023/04/24 23:45:37;;;;;;;6.43;3.03;;;11.60;91.90;;;;;;21007386;28;20612;-68
2023/04/24 23:55:39;;;;;;;5.63;3.50;;;11.60;92.20;;;;;;21006890;28;20243;-64
